Time;durP1;ratioP1;P1;durP2;ratioP2;P2;SDS_P1;SDS_P2;PMS_P1;PMS_P2;Temp;Humidity;BMP_temperature;BMP_pressure;BME280_temperature;BME280_humidity;BME280_pressure;Samples;Min_cycle;Max_cycle;Signal;HPM_P1;HPM_P2
2021/06/24 00:02:29;;;;;;;;;;;;;;;21.93;46.36;101618.41;4940932;28;96708;-84
2021/06/24 00:05:01;;;;;;;;;;;;;;;22.04;45.92;101603.31;4931994;28;97411;-84
2021/06/24 00:10:04;;;;;;;;;;;;;;;21.70;46.95;101595.81;4988606;28;96586;-85
2021/06/24 00:12:30;;;;;;;;;;;;;;;21.95;46.32;101594.97;4964343;28;96807;-85
2021/06/24 00:14:58;;;;;;;;;;;;;;;21.44;47.68;101587.69;4962527;28;99014;-84
2021/06/24 00:17:26;;;;;;;;;;;;;;;21.83;46.65;101584.09;4965051;28;101264;-84
2021/06/24 00:19:55;;;;;;;;;;;;;;;22.11;45.91;101582.22;4970817;28;98793;-84
2021/06/24 00:22:30;;;;;;;;;;;;;;;22.30;45.63;101589.84;4972020;28;98566;-85
2021/06/24 00:24:57;;;;;;;;;;;;;;;22.22;45.67;101590.38;4980587;28;96673;-84
2021/06/24 00:27:23;;;;;;;;;;;;;;;22.19;45.70;101595.97;4974767;28;99271;-84
2021/06/24 00:29:49;;;;;;;;;;;;;;;22.00;46.49;101601.78;4961289;28;99146;-83
2021/06/24 00:32:32;;;;;;;;;;;;;;;22.03;46.04;101609.66;4971182;28;96922;-83
2021/06/24 00:35:01;;;;;;;;;;;;;;;21.75;47.09;101599.91;4965255;28;96701;-84
2021/06/24 00:37:29;;;;;;;;;;;;;;;21.52;47.52;101608.69;4976409;28;97902;-84
2021/06/24 00:39:57;;;;;;;;;;;;;;;21.75;47.02;101607.09;4976819;28;98913;-84
2021/06/24 00:42:29;;;;;;;;;;;;;;;21.94;46.59;101602.19;4969431;28;96932;-83
2021/06/24 00:44:56;;;;;;;;;;;;;;;22.09;46.28;101605.66;4973046;28;97546;-83
2021/06/24 00:47:22;;;;;;;;;;;;;;;21.95;46.40;101597.66;4970750;28;98925;-83
2021/06/24 00:49:48;;;;;;;;;;;;;;;21.87;46.53;101601.75;4983111;28;98865;-83
2021/06/24 00:52:14;;;;;;;;;;;;;;;21.99;46.50;101605.44;4968064;28;96795;-83
2021/06/24 00:54:42;;;;;;;;;;;;;;;22.01;46.26;101598.13;4971492;28;96869;-84
2021/06/24 00:57:09;;;;;;;;;;;;;;;21.82;46.74;101598.50;4971614;28;99383;-83
2021/06/24 00:59:37;;;;;;;;;;;;;;;21.05;48.56;101593.00;4961285;28;98965;-85
2021/06/24 01:02:05;;;;;;;;;;;;;;;21.24;48.45;101593.53;4961779;28;97029;-85
2021/06/24 01:04:34;;;;;;;;;;;;;;;20.98;48.85;101589.00;4965921;28;97663;-84
2021/06/24 01:07:02;;;;;;;;;;;;;;;21.47;47.73;101598.22;4958824;28;98852;-85
2021/06/24 01:09:29;;;;;;;;;;;;;;;21.76;47.19;101595.38;4959676;28;99327;-84
2021/06/24 01:11:56;;;;;;;;;;;;;;;22.06;46.24;101606.72;4959372;28;96771;-83
2021/06/24 01:14:23;;;;;;;;;;;;;;;21.97;46.28;101602.00;4971402;28;96674;-85
2021/06/24 01:16:51;;;;;;;;;;;;;;;21.93;46.57;101600.44;4972773;28;99283;-85
2021/06/24 01:19:17;;;;;;;;;;;;;;;22.02;46.19;101610.63;4965683;28;98218;-84
2021/06/24 01:21:45;;;;;;;;;;;;;;;22.34;45.50;101610.19;4968015;28;96795;-85
2021/06/24 01:24:13;;;;;;;;;;;;;;;22.30;45.24;101617.63;4981753;28;96878;-84
2021/06/24 01:26:41;;;;;;;;;;;;;;;22.32;45.59;101630.97;4987559;28;98941;-85
2021/06/24 01:29:08;;;;;;;;;;;;;;;22.43;44.80;101639.16;4979580;28;97751;-84
2021/06/24 01:31:37;;;;;;;;;;;;;;;22.28;45.13;101643.78;4987722;28;96660;-84
2021/06/24 01:34:05;;;;;;;;;;;;;;;22.58;44.83;101635.34;4973419;28;98577;-84
2021/06/24 01:36:31;;;;;;;;;;;;;;;22.65;44.71;101626.72;4986258;28;97946;-84
2021/06/24 01:38:59;;;;;;;;;;;;;;;22.34;45.06;101639.78;4968420;28;96998;-84
2021/06/24 01:41:26;;;;;;;;;;;;;;;22.33;45.37;101636.22;4959048;28;96751;-85
2021/06/24 01:43:52;;;;;;;;;;;;;;;21.94;46.24;101631.78;4969240;28;97764;-83
2021/06/24 01:46:19;;;;;;;;;;;;;;;21.84;46.68;101634.25;4976396;28;98088;-83
2021/06/24 01:48:45;;;;;;;;;;;;;;;22.02;46.54;101642.03;4970257;28;98100;-83
2021/06/24 01:51:12;;;;;;;;;;;;;;;22.31;46.55;101630.13;4972707;28;98559;-83
2021/06/24 01:53:38;;;;;;;;;;;;;;;22.04;45.72;101621.28;4969464;28;97430;-84
2021/06/24 01:56:05;;;;;;;;;;;;;;;21.68;46.77;101628.19;4964159;28;98909;-84
2021/06/24 01:58:35;;;;;;;;;;;;;;;21.69;46.92;101621.84;4968885;28;99142;-83
2021/06/24 02:01:02;;;;;;;;;;;;;;;21.69;46.68;101626.34;4963582;28;97154;-84
2021/06/24 02:03:28;;;;;;;;;;;;;;;21.58;47.02;101616.34;4965344;28;97015;-83
2021/06/24 02:05:56;;;;;;;;;;;;;;;21.69;47.21;101616.47;4970073;28;98681;-84
2021/06/24 02:08:24;;;;;;;;;;;;;;;21.77;46.79;101602.50;4973592;28;98854;-85
2021/06/24 02:10:50;;;;;;;;;;;;;;;21.95;46.33;101603.03;4961840;28;97440;-84
2021/06/24 02:13:16;;;;;;;;;;;;;;;21.39;47.38;101605.09;4966375;28;97196;-85
2021/06/24 02:15:44;;;;;;;;;;;;;;;21.25;48.37;101597.97;4962953;28;99296;-84
2021/06/24 02:18:11;;;;;;;;;;;;;;;21.19;48.41;101597.50;4959775;28;100480;-84
2021/06/24 02:20:38;;;;;;;;;;;;;;;21.24;48.21;101590.00;4971822;28;96721;-84
2021/06/24 02:23:06;;;;;;;;;;;;;;;21.25;47.94;101589.91;4963716;28;96852;-83
2021/06/24 02:25:33;;;;;;;;;;;;;;;21.21;47.97;101587.50;4975798;28;98946;-83
2021/06/24 02:27:59;;;;;;;;;;;;;;;21.47;47.48;101578.53;4973747;28;98835;-83
2021/06/24 02:30:26;;;;;;;;;;;;;;;20.91;49.02;101566.19;4963784;28;96653;-83
2021/06/24 02:32:54;;;;;;;;;;;;;;;20.80;49.07;101561.53;4967942;28;97107;-84
2021/06/24 02:35:22;;;;;;;;;;;;;;;21.15;48.27;101558.31;4980121;28;99196;-84
2021/06/24 02:37:50;;;;;;;;;;;;;;;21.02;48.68;101551.06;4969960;28;98943;-84
2021/06/24 02:40:17;;;;;;;;;;;;;;;21.29;48.19;101551.09;4993678;28;96548;-84
2021/06/24 02:42:44;;;;;;;;;;;;;;;21.42;47.77;101545.72;4980140;28;95961;-84
2021/06/24 02:45:14;;;;;;;;;;;;;;;21.65;47.32;101552.22;4988210;28;100983;-85
2021/06/24 02:47:40;;;;;;;;;;;;;;;21.82;46.92;101542.03;4974272;28;98224;-84
2021/06/24 02:50:10;;;;;;;;;;;;;;;21.39;47.63;101543.28;4979047;28;96895;-83
2021/06/24 02:52:37;;;;;;;;;;;;;;;21.56;47.73;101542.09;4974937;28;96741;-84
2021/06/24 02:55:04;;;;;;;;;;;;;;;21.50;47.57;101531.75;4959413;28;97892;-84
2021/06/24 02:57:31;;;;;;;;;;;;;;;21.27;48.11;101528.81;4974590;28;99184;-84
2021/06/24 02:59:57;;;;;;;;;;;;;;;21.59;47.41;101528.47;4968500;28;96780;-84
2021/06/24 03:02:24;;;;;;;;;;;;;;;21.46;47.74;101531.97;4970613;28;97063;-84
2021/06/24 03:04:50;;;;;;;;;;;;;;;21.71;47.18;101535.66;4950685;28;97478;-84
2021/06/24 03:07:18;;;;;;;;;;;;;;;21.88;46.69;101538.91;4947976;28;97850;-84
2021/06/24 03:09:44;;;;;;;;;;;;;;;21.81;46.74;101547.50;4964081;28;96996;-84
2021/06/24 03:12:11;;;;;;;;;;;;;;;21.88;46.76;101552.34;4967364;28;96911;-84
2021/06/24 03:14:37;;;;;;;;;;;;;;;21.56;47.32;101555.53;4970588;28;98937;-85
2021/06/24 03:17:03;;;;;;;;;;;;;;;21.48;47.53;101550.69;4962964;28;98870;-85
2021/06/24 03:19:30;;;;;;;;;;;;;;;21.02;48.76;101544.81;4974458;28;96981;-84
2021/06/24 03:21:56;;;;;;;;;;;;;;;21.52;47.78;101537.91;4971566;28;96625;-85
2021/06/24 03:24:24;;;;;;;;;;;;;;;21.08;48.89;101536.34;4980926;28;96822;-86
2021/06/24 03:26:51;;;;;;;;;;;;;;;20.65;50.43;101533.84;4962237;28;97668;-85
2021/06/24 03:29:18;;;;;;;;;;;;;;;20.94;49.57;101529.22;4969172;28;96686;-85
2021/06/24 03:31:45;;;;;;;;;;;;;;;20.42;51.18;101530.88;4976667;28;96912;-83
2021/06/24 03:34:11;;;;;;;;;;;;;;;20.49;50.96;101530.41;4983605;28;99487;-83
2021/06/24 03:36:38;;;;;;;;;;;;;;;20.38;51.29;101524.88;4977872;28;98841;-84
2021/06/24 03:39:04;;;;;;;;;;;;;;;20.52;51.24;101521.31;4962989;28;96814;-83
2021/06/24 03:41:32;;;;;;;;;;;;;;;21.07;50.00;101519.38;4972439;28;96727;-84
2021/06/24 03:43:58;;;;;;;;;;;;;;;21.16;49.33;101526.00;4979441;28;96908;-84
2021/06/24 03:46:25;;;;;;;;;;;;;;;20.77;50.52;101510.69;4967172;28;97201;-84
2021/06/24 03:48:52;;;;;;;;;;;;;;;20.72;50.91;101506.56;4978255;28;96769;-84
2021/06/24 03:51:19;;;;;;;;;;;;;;;21.19;49.62;101500.75;4974567;28;96787;-84
2021/06/24 03:53:45;;;;;;;;;;;;;;;21.16;49.57;101498.25;4964151;28;98962;-83
2021/06/24 03:56:12;;;;;;;;;;;;;;;21.29;49.44;101489.25;4961895;28;97696;-83
2021/06/24 03:58:39;;;;;;;;;;;;;;;21.05;50.04;101486.38;4969706;28;96806;-84
2021/06/24 04:01:06;;;;;;;;;;;;;;;21.01;50.02;101489.38;4960091;28;96925;-82
2021/06/24 04:03:32;;;;;;;;;;;;;;;21.01;50.39;101481.31;4966373;28;97989;-83
2021/06/24 04:05:58;;;;;;;;;;;;;;;20.79;50.99;101476.53;4961653;28;99811;-83
2021/06/24 04:08:25;;;;;;;;;;;;;;;21.13;50.25;101469.75;4958268;28;97304;-83
2021/06/24 04:10:51;;;;;;;;;;;;;;;21.02;50.31;101474.97;4974892;28;96777;-83
2021/06/24 04:13:17;;;;;;;;;;;;;;;21.25;50.01;101482.38;4975327;28;99455;-83
2021/06/24 04:15:45;;;;;;;;;;;;;;;21.72;48.83;101484.47;4974418;28;99025;-84
2021/06/24 04:18:11;;;;;;;;;;;;;;;22.07;47.93;101478.41;4977538;28;96762;-83
2021/06/24 04:20:38;;;;;;;;;;;;;;;22.35;47.20;101482.66;4964688;28;97090;-84
2021/06/24 04:23:04;;;;;;;;;;;;;;;22.32;47.15;101483.72;4966390;28;98894;-83
2021/06/24 04:25:30;;;;;;;;;;;;;;;22.58;46.68;101473.75;4958674;28;97833;-83
2021/06/24 04:27:58;;;;;;;;;;;;;;;22.71;46.44;101495.25;4967701;28;97151;-83
2021/06/24 04:30:27;;;;;;;;;;;;;;;22.67;46.53;101487.41;4961431;28;96824;-83
2021/06/24 04:32:55;;;;;;;;;;;;;;;22.69;46.56;101497.19;4966405;28;98890;-82
2021/06/24 04:35:22;;;;;;;;;;;;;;;22.70;46.60;101504.31;4962474;28;98920;-83
2021/06/24 04:37:48;;;;;;;;;;;;;;;22.65;46.93;101507.31;4965494;28;96892;-84
2021/06/24 04:40:15;;;;;;;;;;;;;;;22.31;47.90;101513.50;4978260;28;96603;-84
2021/06/24 04:42:41;;;;;;;;;;;;;;;22.33;48.10;101512.38;4979151;28;99185;-83
2021/06/24 04:45:09;;;;;;;;;;;;;;;22.09;48.62;101516.84;4977403;28;97728;-85
2021/06/24 04:47:36;;;;;;;;;;;;;;;21.24;50.93;101517.41;4965977;28;97122;-82
2021/06/24 04:50:04;;;;;;;;;;;;;;;20.96;52.24;101521.91;4975796;28;97015;-85
2021/06/24 04:52:30;;;;;;;;;;;;;;;21.52;50.62;101521.78;4977747;28;97811;-84
2021/06/24 04:54:58;;;;;;;;;;;;;;;21.94;49.48;101526.84;4978047;28;99184;-85
2021/06/24 04:57:25;;;;;;;;;;;;;;;21.80;49.80;101518.88;4974152;28;96878;-86
2021/06/24 04:59:51;;;;;;;;;;;;;;;21.07;52.20;101534.63;4979481;28;96633;-85
2021/06/24 05:02:18;;;;;;;;;;;;;;;21.34;51.63;101530.13;4967811;28;99413;-84
2021/06/24 05:04:45;;;;;;;;;;;;;;;21.33;51.86;101527.56;4968704;28;100465;-85
2021/06/24 05:07:12;;;;;;;;;;;;;;;21.44;51.78;101535.75;4964821;28;96826;-85
2021/06/24 05:09:41;;;;;;;;;;;;;;;21.48;51.26;101535.41;4968293;28;97057;-83
2021/06/24 05:12:08;;;;;;;;;;;;;;;21.62;51.23;101529.09;4957333;28;99250;-83
2021/06/24 05:14:34;;;;;;;;;;;;;;;21.03;52.97;101533.97;4974396;28;100526;-86
2021/06/24 05:17:01;;;;;;;;;;;;;;;21.40;52.34;101531.53;4971237;28;96915;-84
2021/06/24 05:19:30;;;;;;;;;;;;;;;21.08;53.14;101539.91;4964989;28;97223;-85
2021/06/24 05:21:57;;;;;;;;;;;;;;;21.84;51.79;101536.53;4962043;28;99224;-86
2021/06/24 05:24:26;;;;;;;;;;;;;;;22.13;51.07;101531.81;4964608;28;98705;-87
2021/06/24 05:26:52;;;;;;;;;;;;;;;22.12;51.43;101536.31;4966838;28;97143;-84
2021/06/24 05:29:20;;;;;;;;;;;;;;;21.62;53.83;101536.28;4976077;28;97949;-85
2021/06/24 05:31:46;;;;;;;;;;;;;;;21.80;52.82;101543.06;4965921;28;99263;-85
2021/06/24 05:34:13;;;;;;;;;;;;;;;22.18;52.13;101532.34;4975086;28;97820;-82
2021/06/24 05:36:42;;;;;;;;;;;;;;;22.30;52.11;101530.59;4971316;28;97590;-84
2021/06/24 05:39:09;;;;;;;;;;;;;;;22.27;52.39;101535.22;4969388;28;96905;-85
2021/06/24 05:41:37;;;;;;;;;;;;;;;22.43;51.89;101529.59;4967159;28;99266;-86
2021/06/24 05:44:04;;;;;;;;;;;;;;;21.79;54.75;101538.69;4968109;28;98981;-85
2021/06/24 05:46:31;;;;;;;;;;;;;;;21.58;53.30;101542.88;4979825;28;96807;-85
2021/06/24 05:48:58;;;;;;;;;;;;;;;21.36;55.33;101547.00;4967122;28;97046;-84
2021/06/24 05:51:24;;;;;;;;;;;;;;;21.31;55.43;101550.97;4962838;28;98967;-86
2021/06/24 05:53:50;;;;;;;;;;;;;;;21.71;55.41;101541.91;4971983;28;100027;-83
2021/06/24 05:56:17;;;;;;;;;;;;;;;22.03;53.62;101538.81;4973192;28;96843;-85
2021/06/24 05:58:49;;;;;;;;;;;;;;;22.04;54.14;101545.94;4974894;28;96782;-84
2021/06/24 06:01:17;;;;;;;;;;;;;;;22.12;53.15;101541.69;4981021;28;99931;-81
2021/06/24 06:03:43;;;;;;;;;;;;;;;21.49;54.48;101552.41;4979522;28;99736;-84
2021/06/24 06:06:10;;;;;;;;;;;;;;;21.58;54.18;101559.88;4976662;28;96866;-83
2021/06/24 06:08:36;;;;;;;;;;;;;;;22.00;53.90;101558.72;4979140;28;96842;-83
2021/06/24 06:11:02;;;;;;;;;;;;;;;21.78;55.04;101564.72;4967441;28;98934;-83
2021/06/24 06:13:29;;;;;;;;;;;;;;;21.86;54.41;101566.84;4972425;28;98978;-82
2021/06/24 06:15:57;;;;;;;;;;;;;;;22.18;54.09;101561.97;4963214;28;98961;-84
2021/06/24 06:18:24;;;;;;;;;;;;;;;22.07;53.79;101564.53;4964920;28;97095;-81
2021/06/24 06:20:51;;;;;;;;;;;;;;;21.59;55.85;101571.47;4965258;28;98920;-82
2021/06/24 06:23:18;;;;;;;;;;;;;;;21.59;56.37;101564.28;4973429;28;97461;-82
2021/06/24 06:25:45;;;;;;;;;;;;;;;21.40;57.09;101577.22;4966252;28;96868;-81
2021/06/24 06:28:12;;;;;;;;;;;;;;;21.65;56.16;101573.75;4968191;28;97468;-84
2021/06/24 06:30:38;;;;;;;;;;;;;;;21.74;56.58;101568.59;4970501;28;98893;-84
2021/06/24 06:33:06;;;;;;;;;;;;;;;22.27;54.17;101562.16;4967882;28;98776;-82
2021/06/24 06:35:33;;;;;;;;;;;;;;;22.32;54.79;101569.06;4973979;28;97214;-83
2021/06/24 06:38:00;;;;;;;;;;;;;;;22.44;54.75;101565.47;4977632;28;97071;-83
2021/06/24 06:40:26;;;;;;;;;;;;;;;22.74;52.90;101565.09;4971685;28;98992;-83
2021/06/24 06:42:53;;;;;;;;;;;;;;;22.95;53.17;101568.91;4964658;28;97832;-83
2021/06/24 06:45:21;;;;;;;;;;;;;;;22.90;52.48;101571.09;4961591;28;96798;-82
2021/06/24 06:47:48;;;;;;;;;;;;;;;22.72;53.18;101575.94;4959874;28;97225;-84
2021/06/24 06:50:16;;;;;;;;;;;;;;;22.97;53.20;101573.19;4966658;28;97346;-84
2021/06/24 06:52:43;;;;;;;;;;;;;;;23.23;51.70;101568.56;4959522;28;97039;-84
2021/06/24 06:55:10;;;;;;;;;;;;;;;22.91;52.88;101583.56;4970559;28;97042;-83
2021/06/24 06:57:36;;;;;;;;;;;;;;;22.71;52.93;101573.38;4971256;28;96729;-82
2021/06/24 07:00:04;;;;;;;;;;;;;;;22.60;53.70;101575.00;4965389;28;99326;-83
2021/06/24 07:02:30;;;;;;;;;;;;;;;22.97;52.83;101564.28;4971291;28;98143;-84
2021/06/24 07:04:56;;;;;;;;;;;;;;;23.02;53.39;101562.09;4969621;28;96987;-82
2021/06/24 07:07:24;;;;;;;;;;;;;;;23.48;51.88;101558.63;4970165;28;96897;-83
2021/06/24 07:09:54;;;;;;;;;;;;;;;23.39;53.18;101552.94;4972296;28;98862;-82
2021/06/24 07:12:20;;;;;;;;;;;;;;;23.44;51.34;101556.13;4966063;28;97706;-83
2021/06/24 07:14:47;;;;;;;;;;;;;;;22.91;53.41;101557.47;4977792;28;97293;-83
2021/06/24 07:17:14;;;;;;;;;;;;;;;23.16;53.29;101559.22;4977628;28;96965;-84
2021/06/24 07:19:40;;;;;;;;;;;;;;;23.38;52.94;101558.44;4979224;28;97880;-85
2021/06/24 07:22:10;;;;;;;;;;;;;;;23.73;51.83;101561.16;4969309;28;98958;-83
2021/06/24 07:24:39;;;;;;;;;;;;;;;24.15;51.92;101565.91;4972301;28;97871;-84
2021/06/24 07:27:06;;;;;;;;;;;;;;;24.65;49.92;101566.38;4969131;28;97783;-83
2021/06/24 07:29:36;;;;;;;;;;;;;;;24.64;49.93;101570.06;4975363;28;101774;-83
2021/06/24 07:32:03;;;;;;;;;;;;;;;23.97;50.61;101567.31;4977991;28;96948;-84
2021/06/24 07:34:29;;;;;;;;;;;;;;;;;;4972906;28;96855;-83
2021/06/24 07:36:56;;;;;;;;;;;;;;;24.05;50.70;101558.63;4977441;28;96779;-84
2021/06/24 07:39:22;;;;;;;;;;;;;;;23.77;50.83;101559.94;4981918;28;98933;-84
2021/06/24 07:41:53;;;;;;;;;;;;;;;24.03;50.20;101557.88;4971757;28;99026;-83
2021/06/24 07:44:20;;;;;;;;;;;;;;;24.25;50.87;101547.13;4986423;28;96949;-84
2021/06/24 07:46:47;;;;;;;;;;;;;;;24.21;50.43;101540.28;4974774;28;97156;-85
2021/06/24 07:49:13;;;;;;;;;;;;;;;23.78;51.91;101542.75;4970730;28;100962;-84
2021/06/24 07:51:40;;;;;;;;;;;;;;;23.85;51.95;101538.59;4976732;28;101723;-82
2021/06/24 07:54:07;;;;;;;;;;;;;;;23.70;52.55;101542.50;4975682;28;97914;-84
2021/06/24 07:56:34;;;;;;;;;;;;;;;23.81;52.15;101531.75;4980982;28;98497;-83
2021/06/24 07:59:03;;;;;;;;;;;;;;;24.28;51.40;101532.53;4979025;28;102027;-83
2021/06/24 08:01:32;;;;;;;;;;;;;;;24.16;51.57;101531.63;4975681;28;98127;-83
2021/06/24 08:03:58;;;;;;;;;;;;;;;24.28;51.28;101527.13;4965008;28;98661;-82
2021/06/24 08:06:27;;;;;;;;;;;;;;;24.40;51.02;101536.94;4977357;28;96916;-84
2021/06/24 08:08:53;;;;;;;;;;;;;;;24.36;51.61;101530.91;4981945;28;98377;-83
2021/06/24 08:11:20;;;;;;;;;;;;;;;24.32;51.79;101532.16;4969142;28;96903;-82
2021/06/24 08:13:46;;;;;;;;;;;;;;;23.84;52.61;101539.56;4959149;28;97032;-84
2021/06/24 08:16:16;;;;;;;;;;;;;;;23.98;51.97;101535.78;4980478;28;97126;-83
2021/06/24 08:18:42;;;;;;;;;;;;;;;24.05;52.46;101543.28;4971798;28;98888;-84
2021/06/24 08:21:08;;;;;;;;;;;;;;;24.27;51.72;101545.19;4964067;28;99603;-85
2021/06/24 08:23:38;;;;;;;;;;;;;;;24.55;51.68;101547.34;4964079;28;97012;-83
2021/06/24 08:26:04;;;;;;;;;;;;;;;24.22;51.55;101553.63;4964704;28;96856;-82
2021/06/24 08:28:34;;;;;;;;;;;;;;;24.23;51.82;101552.66;4969431;28;98042;-83
2021/06/24 08:31:03;;;;;;;;;;;;;;;24.14;51.45;101544.41;4966491;28;98882;-83
2021/06/24 08:33:33;;;;;;;;;;;;;;;24.73;50.40;101536.88;4973549;28;96879;-84
2021/06/24 08:36:00;;;;;;;;;;;;;;;24.86;50.15;101537.59;4970510;28;97704;-83
2021/06/24 08:38:27;;;;;;;;;;;;;;;24.99;49.62;101538.31;4969177;28;99626;-82
2021/06/24 08:40:55;;;;;;;;;;;;;;;25.07;49.71;101544.94;4977050;28;97731;-82
2021/06/24 08:43:21;;;;;;;;;;;;;;;24.76;50.67;101541.16;4974932;28;97347;-83
2021/06/24 08:45:48;;;;;;;;;;;;;;;24.92;50.53;101549.78;4972870;28;97608;-83
2021/06/24 08:48:15;;;;;;;;;;;;;;;24.72;50.72;101554.09;4973473;28;99399;-82
2021/06/24 08:50:44;;;;;;;;;;;;;;;25.07;50.45;101548.50;4973746;28;98857;-81
2021/06/24 08:53:10;;;;;;;;;;;;;;;25.25;50.18;101548.78;4973176;28;96784;-82
2021/06/24 08:55:40;;;;;;;;;;;;;;;25.29;49.08;101552.94;4976732;28;96918;-82
2021/06/24 08:58:07;;;;;;;;;;;;;;;25.47;48.78;101548.66;4984922;28;101158;-82
2021/06/24 09:00:33;;;;;;;;;;;;;;;25.44;50.11;101553.50;4980220;28;100805;-82
2021/06/24 09:03:13;;;;;;;;;;;;;;;25.42;49.96;101545.50;4983636;28;95969;-82
2021/06/24 09:05:49;;;;;;;;;;;;;;;25.81;48.47;101546.66;4985335;28;97276;-83
2021/06/24 09:08:23;;;;;;;;;;;;;;;25.36;49.84;101559.56;4992386;28;97920;-81
2021/06/24 09:11:04;;;;;;;;;;;;;;;25.84;48.78;101556.38;4959246;28;98709;-82
2021/06/24 09:13:30;;;;;;;;;;;;;;;25.74;48.44;101564.41;4985225;28;96660;-82
2021/06/24 09:15:57;;;;;;;;;;;;;;;25.90;47.52;101566.66;4989592;28;96648;-86
2021/06/24 09:18:30;;;;;;;;;;;;;;;25.62;48.19;101569.03;4982137;28;98255;-84
2021/06/24 09:21:03;;;;;;;;;;;;;;;25.68;47.47;101562.25;4965744;28;103904;-83
2021/06/24 09:23:29;;;;;;;;;;;;;;;25.39;48.65;101570.13;4979437;28;96749;-83
2021/06/24 09:26:06;;;;;;;;;;;;;;;25.54;48.35;101563.38;4983610;28;96519;-82
2021/06/24 09:28:36;;;;;;;;;;;;;;;25.62;48.12;101571.75;4992314;28;97797;-84
2021/06/24 09:31:02;;;;;;;;;;;;;;;25.87;47.69;101566.91;4993084;28;97961;-84
2021/06/24 09:33:38;;;;;;;;;;;;;;;25.64;47.83;101572.50;4983248;28;96836;-83
2021/06/24 09:36:06;;;;;;;;;;;;;;;25.53;49.35;101569.81;4983447;28;98820;-82
2021/06/24 09:38:41;;;;;;;;;;;;;;;26.07;47.33;101555.22;4982399;28;97479;-83
2021/06/24 09:41:14;;;;;;;;;;;;;;;25.94;47.12;101562.69;4983859;28;97667;-83
2021/06/24 09:43:42;;;;;;;;;;;;;;;26.12;47.37;101563.81;4980840;28;96732;-83
2021/06/24 09:46:11;;;;;;;;;;;;;;;25.82;47.48;101569.16;4979145;28;96861;-83
2021/06/24 09:48:38;;;;;;;;;;;;;;;26.27;47.43;101564.31;4985773;28;97480;-83
2021/06/24 09:51:18;;;;;;;;;;;;;;;25.98;48.18;101558.75;4980457;28;98060;-86
2021/06/24 09:53:50;;;;;;;;;;;;;;;25.87;48.18;101561.50;4978706;28;97509;-82
2021/06/24 09:56:21;;;;;;;;;;;;;;;25.83;48.35;101562.78;4983097;28;96942;-83
2021/06/24 09:58:50;;;;;;;;;;;;;;;26.17;47.16;101564.25;4983227;28;97847;-84
2021/06/24 10:01:28;;;;;;;;;;;;;;;26.20;46.35;101556.69;4988512;28;97574;-83
2021/06/24 10:03:56;;;;;;;;;;;;;;;26.22;46.64;101561.13;4984009;28;97608;-82
2021/06/24 10:06:24;;;;;;;;;;;;;;;25.20;49.10;101556.44;4989308;28;95998;-83
2021/06/24 10:08:51;;;;;;;;;;;;;;;26.12;47.37;101556.50;4980977;28;97404;-84
2021/06/24 10:14:05;;;;;;;;;;;;;;;26.08;46.58;101556.94;4986914;28;97021;-82
2021/06/24 10:16:33;;;;;;;;;;;;;;;25.79;46.44;101567.59;4990408;28;96404;-83
2021/06/24 10:19:00;;;;;;;;;;;;;;;26.14;46.00;101553.69;4988374;28;99710;-83
2021/06/24 10:21:28;;;;;;;;;;;;;;;25.66;46.89;101553.41;4992312;28;100178;-83
2021/06/24 10:23:57;;;;;;;;;;;;;;;26.25;45.86;101550.94;4988090;28;97306;-82
2021/06/24 10:26:25;;;;;;;;;;;;;;;26.75;46.11;101546.38;4987210;28;97689;-83
2021/06/24 10:29:06;;;;;;;;;;;;;;;26.20;46.23;101540.44;4988635;28;98042;-82
2021/06/24 10:31:36;;;;;;;;;;;;;;;26.49;45.47;101537.88;4982492;28;97934;-83
2021/06/24 10:34:04;;;;;;;;;;;;;;;26.46;45.25;101538.16;4984613;28;96678;-82
2021/06/24 10:36:32;;;;;;;;;;;;;;;26.54;45.78;101524.78;4991546;28;96924;-82
2021/06/24 10:38:59;;;;;;;;;;;;;;;26.68;44.99;101533.50;4990043;28;97915;-81
2021/06/24 10:41:25;;;;;;;;;;;;;;;26.38;46.05;101529.88;4991537;28;97778;-81
2021/06/24 10:43:53;;;;;;;;;;;;;;;26.55;44.84;101531.06;4992621;28;97877;-81
2021/06/24 10:46:21;;;;;;;;;;;;;;;26.66;43.90;101522.78;4990401;28;96612;-83
2021/06/24 10:48:47;;;;;;;;;;;;;;;27.10;43.76;101524.19;4987276;28;99926;-82
2021/06/24 10:51:15;;;;;;;;;;;;;;;26.94;43.76;101513.88;4991917;28;98112;-82
2021/06/24 10:53:50;;;;;;;;;;;;;;;27.50;43.78;101517.75;4991571;28;96613;-81
2021/06/24 10:56:48;;;;;;;;;;;;;;;27.16;43.83;101512.75;4996227;28;96973;-80
2021/06/24 10:59:41;;;;;;;;;;;;;;;27.60;42.71;101511.31;4991349;28;97929;-83
2021/06/24 11:02:11;;;;;;;;;;;;;;;27.59;42.84;101506.03;4933307;28;97730;-80
2021/06/24 11:04:39;;;;;;;;;;;;;;;27.86;41.49;101502.53;4993262;28;96408;-82
2021/06/24 11:07:18;;;;;;;;;;;;;;;27.00;42.80;101506.19;4997678;28;96067;-83
2021/06/24 11:10:03;;;;;;;;;;;;;;;27.19;42.98;101496.19;4990651;28;97911;-82
2021/06/24 11:12:54;;;;;;;;;;;;;;;27.19;42.40;101503.47;4994771;28;97934;-83
2021/06/24 11:15:39;;;;;;;;;;;;;;;27.14;41.96;101503.91;4978285;28;96025;-84
2021/06/24 11:18:06;;;;;;;;;;;;;;;27.39;41.43;101502.44;4987017;28;96589;-82
2021/06/24 11:20:42;;;;;;;;;;;;;;;26.65;43.71;101507.53;4982432;28;98494;-81
2021/06/24 11:23:26;;;;;;;;;;;;;;;25.43;46.82;101506.63;4990321;28;98027;-80
2021/06/24 11:26:05;;;;;;;;;;;;;;;25.41;46.90;101509.47;4986632;28;96812;-82
2021/06/24 11:28:39;;;;;;;;;;;;;;;25.75;47.45;101504.75;4986541;28;96662;-81
2021/06/24 11:31:06;;;;;;;;;;;;;;;26.23;45.34;101503.25;4990888;28;98371;-82
2021/06/24 11:33:37;;;;;;;;;;;;;;;26.01;45.92;101501.59;4988170;28;98043;-81
2021/06/24 11:36:15;;;;;;;;;;;;;;;26.00;45.72;101487.19;4983826;28;97592;-81
2021/06/24 11:38:45;;;;;;;;;;;;;;;26.38;44.52;101489.22;4983252;28;96794;-81
2021/06/24 11:41:12;;;;;;;;;;;;;;;26.45;45.28;101486.81;4992467;28;97900;-80
2021/06/24 11:43:39;;;;;;;;;;;;;;;25.84;46.61;101497.66;4972101;28;97951;-81
2021/06/24 11:46:06;;;;;;;;;;;;;;;24.89;47.04;101494.09;4981628;28;96784;-83
2021/06/24 11:48:34;;;;;;;;;;;;;;;25.10;47.90;101496.00;4989217;28;97238;-81
2021/06/24 12:04:44;;;;;;;;;;;;;;;26.22;45.28;101488.84;4983269;28;97757;-81
2021/06/24 12:07:13;;;;;;;;;;;;;;;26.41;43.08;101490.78;4983883;28;96417;-81
2021/06/24 12:09:42;;;;;;;;;;;;;;;26.17;45.02;101483.00;4989935;28;96929;-83
2021/06/24 12:12:09;;;;;;;;;;;;;;;26.34;45.35;101490.47;4981339;28;99237;-80
2021/06/24 12:14:37;;;;;;;;;;;;;;;26.59;45.24;101479.13;4975970;28;98934;-80
2021/06/24 12:17:04;;;;;;;;;;;;;;;26.37;44.28;101481.22;4988182;28;98564;-81
2021/06/24 12:19:40;;;;;;;;;;;;;;;26.25;45.92;101485.91;4987146;28;97251;-82
2021/06/24 12:22:08;;;;;;;;;;;;;;;26.91;43.98;101488.94;4989961;28;97867;-81
2021/06/24 12:24:35;;;;;;;;;;;;;;;27.09;44.09;101487.22;4986187;28;97583;-82
2021/06/24 12:27:14;;;;;;;;;;;;;;;27.43;42.76;101489.47;4989104;28;96665;-81
2021/06/24 12:29:40;;;;;;;;;;;;;;;27.88;42.65;101481.50;4984498;28;96758;-82
2021/06/24 12:32:07;;;;;;;;;;;;;;;27.86;40.43;101484.38;4990331;28;101369;-81
2021/06/24 12:34:34;;;;;;;;;;;;;;;27.67;40.39;101481.72;4983240;28;96743;-82
2021/06/24 12:37:00;;;;;;;;;;;;;;;27.83;40.92;101487.38;4985131;28;96925;-81
2021/06/24 12:39:28;;;;;;;;;;;;;;;28.03;41.44;101477.28;4980114;28;96803;-81
2021/06/24 12:41:55;;;;;;;;;;;;;;;27.12;42.98;101473.34;4985523;28;98321;-81
2021/06/24 12:44:22;;;;;;;;;;;;;;;27.65;39.64;101472.84;4972420;28;97987;-82
2021/06/24 12:46:48;;;;;;;;;;;;;;;28.32;38.18;101475.31;4967267;28;96830;-82
2021/06/24 12:49:16;;;;;;;;;;;;;;;28.18;38.43;101481.25;4978470;28;96968;-82
2021/06/24 12:51:42;;;;;;;;;;;;;;;28.91;37.57;101482.97;4978653;28;97874;-81
2021/06/24 12:54:14;;;;;;;;;;;;;;;28.91;37.20;101474.81;4979929;28;100871;-79
2021/06/24 12:56:44;;;;;;;;;;;;;;;28.85;37.11;101480.88;4980083;28;96756;-81
2021/06/24 12:59:12;;;;;;;;;;;;;;;28.34;36.81;101467.03;4971883;28;96861;-79
2021/06/24 13:01:39;;;;;;;;;;;;;;;28.18;37.52;101469.53;4980923;28;97733;-81
2021/06/24 13:04:10;;;;;;;;;;;;;;;28.19;37.41;101468.53;4968145;28;97925;-80